createdAt,value
2022-08-05T00:01:28.512Z,100308.09
2022-08-05T00:03:57.713Z,100301.13
2022-08-05T00:06:32.834Z,100300.58
2022-08-05T00:09:00.701Z,100302.81
2022-08-05T00:11:35.178Z,100302.00
2022-08-05T00:14:13.050Z,100300.63
2022-08-05T00:16:52.386Z,100303.44
2022-08-05T00:19:07.237Z,100297.87
2022-08-05T00:21:37.186Z,100302.66
2022-08-05T00:24:10.409Z,100309.90
2022-08-05T00:26:38.786Z,100305.17
2022-08-05T00:29:08.000Z,100298.48
2022-08-05T00:31:53.349Z,100305.73
2022-08-05T00:34:56.278Z,100310.48
2022-08-05T00:37:11.754Z,100302.95
2022-08-05T00:39:14.307Z,100302.39
2022-08-05T00:41:51.546Z,100296.56
2022-08-05T00:44:17.612Z,100289.32
2022-08-05T00:46:46.800Z,100289.03
2022-08-05T00:49:20.214Z,100284.02
2022-08-05T00:51:51.675Z,100279.22
2022-08-05T00:54:21.020Z,100280.05
2022-08-05T00:56:51.796Z,100288.46
2022-08-05T00:59:21.164Z,100290.98
2022-08-05T01:01:51.271Z,100286.25
2022-08-05T01:04:26.962Z,100283.97
2022-08-05T01:06:55.086Z,100286.75
2022-08-05T01:09:24.472Z,100284.49
2022-08-05T01:12:01.854Z,100278.35
2022-08-05T01:14:56.215Z,100280.30
2022-08-05T01:17:40.243Z,100277.78
2022-08-05T01:20:43.677Z,100279.38
2022-08-05T01:23:53.053Z,100277.98
2022-08-05T01:26:50.988Z,100278.80
2022-08-05T01:29:31.976Z,100286.55
2022-08-05T01:32:06.311Z,100277.91
2022-08-05T01:34:45.550Z,100268.18
2022-08-05T01:37:32.875Z,100266.23
2022-08-05T01:40:04.684Z,100268.47
2022-08-05T01:42:33.888Z,100264.83
2022-08-05T01:45:04.117Z,100259.52
2022-08-05T01:47:39.674Z,100256.72
2022-08-05T01:50:28.615Z,100260.59
2022-08-05T01:52:59.090Z,100256.98
2022-08-05T01:55:29.479Z,100253.63
2022-08-05T01:58:12.972Z,100262.23
2022-08-05T02:00:31.796Z,100266.38
2022-08-05T02:03:31.379Z,100266.34
2022-08-05T02:05:59.787Z,100270.77
2022-08-05T02:08:31.582Z,100272.11
2022-08-05T02:11:12.337Z,100273.47
2022-08-05T02:13:54.826Z,100269.59
2022-08-05T02:16:52.822Z,100278.25
2022-08-05T02:19:34.349Z,100274.37
2022-08-05T02:22:25.376Z,100274.11
2022-08-05T02:24:46.011Z,100285.25
2022-08-05T02:27:18.021Z,100290.81
2022-08-05T02:29:58.690Z,100289.39
2022-08-05T02:32:24.210Z,100286.59
2022-08-05T02:34:54.534Z,100297.97
2022-08-05T02:37:25.755Z,100290.44
2022-08-05T02:39:55.788Z,100297.62
2022-08-05T02:42:28.100Z,100305.34
2022-08-05T02:44:57.244Z,100302.02
2022-08-05T02:47:58.557Z,100306.48
2022-08-05T02:49:59.056Z,100307.06
2022-08-05T02:52:31.306Z,100297.91
2022-08-05T02:55:05.581Z,100297.09
2022-08-05T02:58:10.506Z,100297.94
2022-08-05T03:00:05.862Z,100299.88
2022-08-05T03:02:39.838Z,100295.16
2022-08-05T03:05:10.623Z,100291.28
2022-08-05T03:08:06.733Z,100293.52
2022-08-05T03:10:15.911Z,100290.12
2022-08-05T03:12:47.383Z,100287.58
2022-08-05T03:15:19.242Z,100287.60
2022-08-05T03:17:49.444Z,100286.50
2022-08-05T03:20:21.045Z,100295.42
2022-08-05T03:22:50.479Z,100294.03
2022-08-05T03:26:02.622Z,100300.17
2022-08-05T03:28:00.212Z,100294.09
2022-08-05T03:30:33.794Z,100299.39
2022-08-05T03:33:05.713Z,100294.09
2022-08-05T03:35:40.823Z,100291.83
2022-08-05T03:38:08.130Z,100288.76
2022-08-05T03:40:45.212Z,100289.89
2022-08-05T03:43:58.492Z,100298.27
2022-08-05T03:45:57.970Z,100300.78
2022-08-05T03:48:22.739Z,100304.69
2022-08-05T03:52:37.265Z,100297.13
2022-08-05T03:55:54.699Z,100300.48
2022-08-05T03:56:51.664Z,100301.62
2022-08-05T03:59:46.938Z,100298.23
2022-08-05T04:02:01.286Z,100290.73
2022-08-05T04:04:31.979Z,100300.20
2022-08-05T04:07:01.676Z,100297.16
2022-08-05T04:09:36.686Z,100303.33
2022-08-05T04:12:24.682Z,100299.19
2022-08-05T04:14:39.518Z,100294.46
2022-08-05T04:17:09.325Z,100307.23
2022-08-05T04:19:54.481Z,100300.31
2022-08-05T04:22:20.402Z,100303.64
2022-08-05T04:24:52.485Z,100303.33
2022-08-05T04:27:42.195Z,100301.06
2022-08-05T04:29:53.146Z,100303.01
2022-08-05T04:32:30.709Z,100306.08
2022-08-05T04:34:53.948Z,100304.14
2022-08-05T04:38:00.971Z,100311.67
2022-08-05T04:39:56.955Z,100303.84
2022-08-05T04:42:26.011Z,100307.47
2022-08-05T04:44:56.287Z,100306.39
2022-08-05T04:47:26.336Z,100304.72
2022-08-05T04:50:01.678Z,100305.82
2022-08-05T04:52:33.413Z,100309.44
2022-08-05T04:55:14.770Z,100303.88
2022-08-05T04:57:37.304Z,100304.69
2022-08-05T05:00:06.626Z,100308.02
2022-08-05T05:02:43.030Z,100310.51
2022-08-05T05:05:16.581Z,100306.89
2022-08-05T05:07:45.753Z,100299.91
2022-08-05T05:10:13.159Z,100295.97
2022-08-05T05:12:43.709Z,100299.59
2022-08-05T05:15:13.398Z,100294.84
2022-08-05T05:17:56.791Z,100306.80
2022-08-05T05:20:17.266Z,100311.52
2022-08-05T05:22:49.791Z,100309.88
2022-08-05T05:25:19.449Z,100302.72
2022-08-05T05:27:53.914Z,100300.03
2022-08-05T05:30:29.316Z,100306.48
2022-08-05T05:32:55.351Z,100314.59
2022-08-05T05:35:25.552Z,100316.03
2022-08-05T05:37:59.413Z,100310.23
2022-08-05T05:40:29.487Z,100312.78
2022-08-05T05:43:00.025Z,100314.46
2022-08-05T05:45:31.366Z,100316.44
2022-08-05T05:48:06.094Z,100317.02
2022-08-05T05:50:33.681Z,100321.73
2022-08-05T05:53:03.467Z,100331.18
2022-08-05T05:55:52.178Z,100333.98
2022-08-05T05:58:07.576Z,100335.12
2022-08-05T06:00:39.398Z,100340.42
2022-08-05T06:03:40.255Z,100334.56
2022-08-05T06:05:43.238Z,100332.91
2022-08-05T06:08:15.906Z,100339.31
2022-08-05T06:10:52.571Z,100335.37
2022-08-05T06:13:19.699Z,100341.18
2022-08-05T06:16:30.230Z,100334.77
2022-08-05T06:18:31.262Z,100337.30
2022-08-05T06:20:54.336Z,100330.86
2022-08-05T06:23:24.300Z,100330.58
2022-08-05T06:26:13.856Z,100331.73
2022-08-05T06:28:28.424Z,100326.22
2022-08-05T06:30:59.673Z,100324.02
2022-08-05T06:33:33.288Z,100329.69
2022-08-05T06:36:07.228Z,100321.70
2022-08-05T06:38:35.854Z,100327.05
2022-08-05T06:41:04.170Z,100324.61
2022-08-05T06:43:58.551Z,100329.67
2022-08-05T06:46:06.900Z,100322.73
2022-08-05T06:48:54.503Z,100330.03
2022-08-05T06:51:10.006Z,100331.70
2022-08-05T06:53:40.819Z,100328.37
2022-08-05T06:56:11.710Z,100334.80
2022-08-05T06:58:43.286Z,100342.64
2022-08-05T07:01:14.782Z,100343.50
2022-08-05T07:03:52.224Z,100349.64
2022-08-05T07:06:23.238Z,100346.33
2022-08-05T07:08:55.217Z,100350.28
2022-08-05T07:11:25.366Z,100352.31
2022-08-05T07:14:15.808Z,100358.21
2022-08-05T07:17:58.837Z,100347.95
2022-08-05T07:20:10.690Z,100351.59
2022-08-05T07:21:59.962Z,100350.23
2022-08-05T07:24:25.585Z,100356.66
2022-08-05T07:26:57.263Z,100347.49
2022-08-05T07:30:28.014Z,100348.06
2022-08-05T07:31:57.562Z,100351.69
2022-08-05T07:34:28.799Z,100355.33
2022-08-05T07:36:58.830Z,100354.22
2022-08-05T07:40:26.752Z,100353.17
2022-08-05T07:42:13.011Z,100349.05
2022-08-05T07:44:31.715Z,100348.88
2022-08-05T07:47:02.407Z,100351.44
2022-08-05T07:49:33.833Z,100356.77
2022-08-05T07:52:06.102Z,100351.77
2022-08-05T07:54:38.672Z,100356.25
2022-08-05T07:57:50.542Z,100361.30
2022-08-05T08:00:00.928Z,100370.52
2022-08-05T08:03:15.342Z,100366.36
2022-08-05T08:05:03.243Z,100369.22
2022-08-05T08:07:39.538Z,100362.33
2022-08-05T08:10:05.630Z,100361.80
2022-08-05T08:12:49.588Z,100365.44
2022-08-05T08:15:09.444Z,100357.90
2022-08-05T08:17:39.766Z,100363.20
2022-08-05T08:20:43.428Z,100365.16
2022-08-05T08:22:44.313Z,100364.11
2022-08-05T08:25:16.479Z,100365.22
2022-08-05T08:27:47.788Z,100359.63
2022-08-05T08:30:27.696Z,100364.38
2022-08-05T08:32:49.444Z,100370.24
2022-08-05T08:35:20.894Z,100371.92
2022-08-05T08:37:54.464Z,100363.81
2022-08-05T08:40:24.808Z,100365.77
2022-08-05T08:42:54.483Z,100370.23
2022-08-05T08:45:29.617Z,100369.67
2022-08-05T08:48:11.790Z,100368.56
2022-08-05T08:51:22.447Z,100368.84
2022-08-05T08:53:11.914Z,100375.84
2022-08-05T08:56:04.525Z,100372.77
2022-08-05T08:58:12.951Z,100384.23
2022-08-05T09:00:44.382Z,100385.06
2022-08-05T09:03:15.942Z,100387.02
2022-08-05T09:06:08.789Z,100390.66
2022-08-05T09:08:18.862Z,100390.09
2022-08-05T09:10:47.631Z,100385.06
2022-08-05T09:13:17.972Z,100380.31
2022-08-05T09:15:49.408Z,100383.66
2022-08-05T09:18:19.430Z,100381.98
2022-08-05T09:20:51.049Z,100387.30
2022-08-05T09:23:22.035Z,100389.53
2022-08-05T09:26:02.519Z,100390.37
2022-08-05T09:28:32.234Z,100388.97
2022-08-05T09:31:22.707Z,100388.12
2022-08-05T09:33:51.989Z,100388.12
2022-08-05T09:36:27.893Z,100388.12
2022-08-05T09:38:59.026Z,100394.27
2022-08-05T09:41:33.134Z,100390.63
2022-08-05T09:44:00.567Z,100390.07
2022-08-05T09:46:35.067Z,100395.94
2022-08-05T09:49:07.955Z,100387.83
2022-08-05T09:51:41.947Z,100396.77
2022-08-05T09:54:11.182Z,100384.73
2022-08-05T09:56:40.997Z,100398.72
2022-08-05T09:59:17.170Z,100395.91
2022-08-05T10:01:49.060Z,100394.52
2022-08-05T10:04:29.278Z,100396.19
2022-08-05T10:06:59.494Z,100393.67
2022-08-05T10:09:30.232Z,100400.38
2022-08-05T10:12:30.120Z,100395.91
2022-08-05T10:14:42.355Z,100394.81
2022-08-05T10:17:37.693Z,100399.84
2022-08-05T10:20:04.375Z,100401.53
2022-08-05T10:22:30.316Z,100405.16
2022-08-05T10:24:54.493Z,100401.53
2022-08-05T10:28:13.146Z,100404.61
2022-08-05T10:30:41.118Z,100404.33
2022-08-05T10:32:54.148Z,100403.50
2022-08-05T10:35:03.548Z,100404.89
2022-08-05T10:37:40.351Z,100409.64
2022-08-05T10:40:18.566Z,100409.63
2022-08-05T10:42:46.296Z,100409.91
2022-08-05T10:45:24.013Z,100412.14
2022-08-05T10:48:31.360Z,100410.19
2022-08-05T10:50:35.237Z,100404.31
2022-08-05T10:53:00.460Z,100411.30
2022-08-05T10:55:32.898Z,100401.23
2022-08-05T10:58:11.237Z,100402.91
2022-08-05T11:00:45.414Z,100403.75
2022-08-05T11:03:23.312Z,100402.06
2022-08-05T11:06:14.607Z,100393.68
2022-08-05T11:08:39.740Z,100387.52
2022-08-05T11:11:44.592Z,100394.52
2022-08-05T11:14:07.463Z,100401.20
2022-08-05T11:16:55.932Z,100391.38
2022-08-05T11:20:10.555Z,100380.98
2022-08-05T11:22:01.627Z,100377.86
2022-08-05T11:24:41.323Z,100376.71
2022-08-05T11:27:50.893Z,100381.47
2022-08-05T11:30:05.284Z,100376.44
2022-08-05T11:32:35.065Z,100376.66
2022-08-05T11:35:06.324Z,100379.14
2022-08-05T11:38:36.817Z,100377.66
2022-08-05T11:40:19.601Z,100377.02
2022-08-05T11:42:51.645Z,100375.27
2022-08-05T11:46:15.085Z,100383.64
2022-08-05T11:48:11.517Z,100375.78
2022-08-05T11:50:42.476Z,100381.67
2022-08-05T11:53:12.080Z,100382.52
2022-08-05T11:56:00.553Z,100377.20
2022-08-05T11:58:37.853Z,100372.16
2022-08-05T12:01:12.790Z,100369.92
2022-08-05T12:03:56.153Z,100368.75
2022-08-05T12:06:25.793Z,100372.89
2022-08-05T12:08:58.566Z,100370.83
2022-08-05T12:11:40.486Z,100374.20
2022-08-05T12:14:10.364Z,100366.63
2022-08-05T12:16:45.129Z,100363.84
2022-08-05T12:20:27.240Z,100360.77
2022-08-05T12:21:50.802Z,100355.16
2022-08-05T12:24:21.315Z,100358.77
2022-08-05T12:26:53.990Z,100357.31
2022-08-05T12:29:24.783Z,100354.78
2022-08-05T12:31:55.875Z,100350.82
2022-08-05T12:34:36.840Z,100349.42
2022-08-05T12:37:17.359Z,100353.09
2022-08-05T12:39:48.542Z,100347.75
2022-08-05T12:42:18.790Z,100344.95
2022-08-05T12:44:50.806Z,100338.50
2022-08-05T12:47:30.768Z,100342.98
2022-08-05T12:50:02.452Z,100339.31
2022-08-05T12:52:38.551Z,100333.95
2022-08-05T12:55:04.316Z,100340.93
2022-08-05T12:58:38.913Z,100335.56
2022-08-05T13:02:01.237Z,100337.45
2022-08-05T13:02:47.174Z,100335.52
2022-08-05T13:05:19.351Z,100327.66
2022-08-05T13:07:59.088Z,100344.76
2022-08-05T13:10:30.980Z,100345.59
2022-08-05T13:13:03.470Z,100338.91
2022-08-05T13:15:35.986Z,100332.46
2022-08-05T13:18:06.546Z,100320.92
2022-08-05T13:20:40.203Z,100318.36
2022-08-05T13:23:08.182Z,100321.43
2022-08-05T13:25:52.093Z,100309.91
2022-08-05T13:28:11.179Z,100315.20
2022-08-05T13:30:42.935Z,100305.88
2022-08-05T13:33:14.299Z,100313.14
2022-08-05T13:35:51.130Z,100311.11
2022-08-05T13:38:31.206Z,100306.50
2022-08-05T13:41:00.858Z,100308.91
2022-08-05T13:43:44.613Z,100304.86
2022-08-05T13:46:01.568Z,100311.50
2022-08-05T13:48:57.090Z,100312.03
2022-08-05T13:51:13.646Z,100312.03
2022-08-05T13:53:47.416Z,100310.63
2022-08-05T13:56:18.380Z,100319.13
2022-08-05T13:58:52.983Z,100315.59
2022-08-05T14:01:18.542Z,100306.97
2022-08-05T14:03:50.360Z,100310.64
2022-08-05T14:06:26.373Z,100305.89
2022-08-05T14:08:51.778Z,100313.21
2022-08-05T14:11:22.937Z,100300.85
2022-08-05T14:13:54.791Z,100310.41
2022-08-05T14:16:24.572Z,100309.80
2022-08-05T14:18:54.828Z,100308.37
2022-08-05T14:22:08.502Z,100306.62
2022-08-05T14:24:00.506Z,100304.36
2022-08-05T14:26:36.946Z,100306.83
2022-08-05T14:29:02.953Z,100297.23
2022-08-05T14:32:02.748Z,100299.70
2022-08-05T14:34:05.943Z,100301.87
2022-08-05T14:36:38.964Z,100294.52
2022-08-05T14:39:10.964Z,100298.37
2022-08-05T14:41:52.228Z,100298.91
2022-08-05T14:44:20.353Z,100302.52
2022-08-05T14:46:42.500Z,100300.02
2022-08-05T14:49:14.235Z,100302.25
2022-08-05T14:51:45.666Z,100298.04
2022-08-05T14:54:28.269Z,100300.28
2022-08-05T14:56:47.704Z,100292.69
2022-08-05T14:59:18.129Z,100280.35
2022-08-05T15:01:50.447Z,100274.13
2022-08-05T15:04:20.816Z,100267.03
2022-08-05T15:06:52.417Z,100263.52
2022-08-05T15:09:51.430Z,100269.90
2022-08-05T15:11:57.033Z,100274.63
2022-08-05T15:14:34.854Z,100271.25
2022-08-05T15:16:58.880Z,100270.98
2022-08-05T15:19:29.192Z,100284.77
2022-08-05T15:22:01.600Z,100286.44
2022-08-05T15:24:31.140Z,100281.66
2022-08-05T15:27:00.388Z,100288.91
2022-08-05T15:29:30.557Z,100289.96
2022-08-05T15:32:03.303Z,100287.94
2022-08-05T15:34:34.222Z,100283.42
2022-08-05T15:37:07.026Z,100285.39
2022-08-05T15:41:01.027Z,100286.23
2022-08-05T15:42:54.306Z,100284.83
2022-08-05T15:44:42.550Z,100277.84
2022-08-05T15:47:13.214Z,100278.98
2022-08-05T15:49:56.000Z,100292.20
2022-08-05T15:52:16.946Z,100298.95
2022-08-05T15:54:45.897Z,100321.74
2022-08-05T15:57:15.973Z,100348.21
2022-08-05T15:59:46.089Z,100333.97
2022-08-05T16:02:27.785Z,100316.75
2022-08-05T16:04:47.121Z,100309.12
2022-08-05T16:07:16.983Z,100315.18
2022-08-05T16:09:48.599Z,100321.56
2022-08-05T16:12:19.945Z,100329.88
2022-08-05T16:14:50.146Z,100327.77
2022-08-05T16:17:19.456Z,100328.41
2022-08-05T16:20:05.693Z,100326.83
2022-08-05T16:22:24.355Z,100326.88
2022-08-05T16:24:54.333Z,100321.33
2022-08-05T16:27:32.349Z,100327.80
2022-08-05T16:29:56.446Z,100319.44
2022-08-05T16:32:29.053Z,100310.78
2022-08-05T16:34:59.083Z,100311.41
2022-08-05T16:38:13.619Z,100309.45
2022-08-05T16:40:06.366Z,100304.19
2022-08-05T16:42:36.217Z,100308.17
2022-08-05T16:46:04.378Z,100307.91
2022-08-05T16:47:48.288Z,100311.55
2022-08-05T16:50:13.054Z,100319.41
2022-08-05T16:52:46.133Z,100325.88
2022-08-05T16:55:16.316Z,100328.13
2022-08-05T16:58:00.338Z,100325.33
2022-08-05T17:00:26.228Z,100325.06
2022-08-05T17:02:49.775Z,100328.42
2022-08-05T17:05:21.588Z,100329.83
2022-08-05T17:07:54.562Z,100329.24
2022-08-05T17:10:26.459Z,100330.91
2022-08-05T17:12:56.492Z,100333.72
2022-08-05T17:15:29.360Z,100336.52
2022-08-05T17:18:00.797Z,100337.65
2022-08-05T17:20:31.352Z,100339.07
2022-08-05T17:23:01.789Z,100339.92
2022-08-05T17:25:39.346Z,100338.56
2022-08-05T17:28:04.073Z,100341.42
2022-08-05T17:30:32.946Z,100348.48
2022-08-05T17:33:04.813Z,100341.81
2022-08-05T17:36:09.013Z,100349.96
2022-08-05T17:38:08.596Z,100339.88
2022-08-05T17:40:38.809Z,100352.20
2022-08-05T17:43:11.078Z,100354.16
2022-08-05T17:45:42.840Z,100347.17
2022-08-05T17:48:12.639Z,100351.94
2022-08-05T17:50:42.583Z,100359.50
2022-08-05T17:53:12.657Z,100354.20
2022-08-05T17:55:44.238Z,100359.55
2022-08-05T17:58:16.108Z,100357.86
2022-08-05T18:00:51.058Z,100359.56
2022-08-05T18:05:53.589Z,100362.11
2022-08-05T18:08:22.384Z,100356.00
2022-08-05T18:10:51.684Z,100356.57
2022-08-05T18:13:21.540Z,100358.80
2022-08-05T18:15:53.244Z,100362.74
2022-08-05T18:18:26.364Z,100352.97
2022-08-05T18:20:56.006Z,100347.67
2022-08-05T18:23:30.115Z,100346.02
2022-08-05T18:25:59.537Z,100341.83
2022-08-05T18:28:29.455Z,100351.92
2022-08-05T18:31:00.291Z,100343.84
2022-08-05T18:33:46.590Z,100340.50
2022-08-05T18:36:08.045Z,100336.03
2022-08-05T18:38:39.447Z,100339.95
2022-08-05T18:41:55.277Z,100341.64
2022-08-05T18:43:48.734Z,100328.49
2022-08-05T18:46:14.192Z,100343.04
2022-08-05T18:48:44.026Z,100334.94
2022-08-05T18:52:06.302Z,100329.34
2022-08-05T18:54:04.025Z,100336.34
2022-08-05T18:56:33.913Z,100338.59
2022-08-05T18:59:03.960Z,100336.60
2022-08-05T19:01:48.134Z,100342.77
2022-08-05T19:04:06.360Z,100343.06
2022-08-05T19:06:45.298Z,100339.70
2022-08-05T19:09:09.957Z,100348.93
2022-08-05T19:11:59.849Z,100355.08
2022-08-05T19:14:59.489Z,100357.33
2022-08-05T19:16:46.808Z,100357.05
2022-08-05T19:19:15.015Z,100354.53
2022-08-05T19:21:47.366Z,100349.52
2022-08-05T19:24:19.272Z,100351.20
2022-08-05T19:26:54.534Z,100350.37
2022-08-05T19:29:26.698Z,100346.73
2022-08-05T19:31:57.493Z,100345.08
2022-08-05T19:34:28.236Z,100343.68
2022-08-05T19:37:00.102Z,100329.70
2022-08-05T19:39:29.979Z,100328.59
2022-08-05T19:42:07.927Z,100324.39
2022-08-05T19:44:34.407Z,100326.64
2022-08-05T19:47:04.514Z,100332.51
2022-08-05T19:49:34.716Z,100332.23
2022-08-05T19:52:27.316Z,100326.65
2022-08-05T19:54:36.905Z,100327.77
2022-08-05T19:57:09.351Z,100330.85
2022-08-05T20:00:00.547Z,100334.20
2022-08-05T20:02:09.938Z,100335.05
2022-08-05T20:04:42.853Z,100333.91
2022-08-05T20:07:13.421Z,100338.37
2022-08-05T20:09:53.579Z,100346.20
2022-08-05T20:12:13.827Z,100341.73
2022-08-05T20:14:43.256Z,100348.72
2022-08-05T20:17:13.802Z,100342.81
2022-08-05T20:19:45.208Z,100349.80
2022-08-05T20:22:15.304Z,100358.18
2022-08-05T20:24:45.587Z,100351.75
2022-08-05T20:27:15.884Z,100348.68
2022-08-05T20:29:52.274Z,100349.52
2022-08-05T20:32:16.335Z,100350.91
2022-08-05T20:34:45.850Z,100347.56
2022-08-05T20:37:24.106Z,100347.28
2022-08-05T20:39:51.513Z,100347.00
2022-08-05T20:42:21.796Z,100340.02
2022-08-05T20:44:50.437Z,100334.70
2022-08-05T20:47:19.376Z,100339.73
2022-08-05T20:49:51.483Z,100331.63
2022-08-05T20:52:20.970Z,100335.81
2022-08-05T20:54:59.719Z,100336.37
2022-08-05T20:57:42.060Z,100331.89
2022-08-05T21:00:21.093Z,100337.75
2022-08-05T21:02:26.809Z,100329.36
2022-08-05T21:04:58.300Z,100324.34
2022-08-05T21:07:50.998Z,100322.95
2022-08-05T21:10:02.688Z,100329.92
2022-08-05T21:12:33.153Z,100334.12
2022-08-05T21:15:03.407Z,100322.67
2022-08-05T21:17:33.031Z,100314.30
2022-08-05T21:20:07.344Z,100311.23
2022-08-05T21:22:37.029Z,100308.16
2022-08-05T21:25:09.069Z,100317.92
2022-08-05T21:27:39.869Z,100310.66
2022-08-05T21:30:17.516Z,100307.03
2022-08-05T21:32:45.036Z,100302.28
2022-08-05T21:35:18.385Z,100308.11
2022-08-05T21:37:52.669Z,100310.62
2022-08-05T21:40:16.914Z,100319.55
2022-08-05T21:42:47.197Z,100324.84
2022-08-05T21:45:26.490Z,100325.95
2022-08-05T21:47:55.798Z,100320.09
2022-08-05T21:50:20.010Z,100322.88
2022-08-05T21:52:52.276Z,100331.26
2022-08-05T21:56:04.220Z,100332.34
2022-08-05T21:57:53.907Z,100333.72
2022-08-05T22:00:24.571Z,100326.45
2022-08-05T22:02:55.095Z,100328.12
2022-08-05T22:05:27.362Z,100338.16
2022-08-05T22:07:59.046Z,100338.45
2022-08-05T22:10:27.843Z,100335.09
2022-08-05T22:14:06.627Z,100336.77
2022-08-05T22:16:02.755Z,100333.13
2022-08-05T22:18:02.862Z,100326.13
2022-08-05T22:20:32.118Z,100328.63
2022-08-05T22:23:21.344Z,100330.01
2022-08-05T22:26:11.934Z,100326.09
2022-08-05T22:28:41.941Z,100325.80
2022-08-05T22:31:13.295Z,100328.57
2022-08-05T22:33:58.003Z,100331.63
2022-08-05T22:36:15.965Z,100337.49
2022-08-05T22:38:48.626Z,100337.77
2022-08-05T22:42:05.605Z,100340.55
2022-08-05T22:43:53.207Z,100332.19
2022-08-05T22:46:23.522Z,100333.32
2022-08-05T22:48:54.033Z,100335.00
2022-08-05T22:52:02.922Z,100329.69
2022-08-05T22:53:55.161Z,100330.80
2022-08-05T22:56:30.558Z,100337.50
2022-08-05T22:58:57.048Z,100341.98
2022-08-05T23:02:04.688Z,100340.59
2022-08-05T23:03:59.625Z,100336.70
2022-08-05T23:06:29.882Z,100336.97
2022-08-05T23:09:27.722Z,100340.05
2022-08-05T23:11:33.554Z,100336.14
2022-08-05T23:14:03.583Z,100348.98
2022-08-05T23:16:52.742Z,100338.10
2022-08-05T23:19:25.881Z,100342.28
2022-08-05T23:21:55.047Z,100338.10
2022-08-05T23:24:24.650Z,100349.26
2022-08-05T23:26:54.141Z,100341.16
2022-08-05T23:29:24.431Z,100340.30
2022-08-05T23:31:56.487Z,100340.02
2022-08-05T23:34:26.576Z,100338.90
2022-08-05T23:36:56.492Z,100346.16
2022-08-05T23:39:32.443Z,100347.27
2022-08-05T23:42:00.694Z,100345.56
2022-08-05T23:44:32.206Z,100351.98
2022-08-05T23:47:02.619Z,100350.02
2022-08-05T23:49:33.854Z,100346.38
2022-08-05T23:52:25.148Z,100353.06
2022-08-05T23:54:55.696Z,100346.08
2022-08-05T23:57:28.349Z,100347.20
